ポルト・アレグレ の空港の天気 - METARとTAF

ポルト・アレグレ国際空港 ( SBPA / POA ) - ブラジル リオグランデ・ド・スル州ポルト・アレグレ
飛行場実況気象(Metar)
観測時間11/27 05:00 BRT (11/27 08:00 UTC)
風向・風速東南東 6m/s
視程10km以上
天気現象
全天の4割程度の雲 雲底高度 400m
気温22℃
湿度88%
気圧1018hPa
METARSBPA 270800Z 12011KT 9999 SCT013 22/20 Q1018
過去の天気等 Google飛行場航空写真 Wunderground天気予報

過去48時間のMETAR

飛行場予報(TAF)
発表時間: 11/27 00:00 BRT (11/27 03:00 UTC)
予報対象時間: 27日3時 BRT ~ 28日3時 BRT
風向・風速東南東 8m/s
視程10km以上
全天の8割程度の雲 雲底高度 240m
27日7時 BRT ~ 27日9時 BRT に徐々に
風向・風速東南東 10m/s 瞬間風速 15m/s
全天の4割程度の雲 雲底高度 370m
全天の8割程度の雲 雲底高度 760m
27日10時 BRT ~ 27日12時 BRT に徐々に
全天の4割程度の雲 雲底高度 910m
27日17時 BRT ~ 27日19時 BRT に徐々に
風向・風速東南東 6m/s
視程10km以上
なし
28日1時 BRT ~ 28日3時 BRT に徐々に
視程10km以上
全天の4割程度の雲 雲底高度 300m
TAF SBPA 270300Z 2706/2806 11015KT 9999 BKN008 TX28/2717Z TN20/2805Z
BECMG 2710/2712 11020G30KT SCT012 BKN025
BECMG 2713/2715 SCT030
BECMG 2720/2722 11012KT CAVOK
BECMG 2804/2806 9999 SCT010 RMK PEG